sensor_id;sensor_type;location;lat;lon;timestamp;P1;durP1;ratioP1;P2;durP2;ratioP2
9413;SDS011;4746;35.664;139.738;2022-11-15T00:01:14;5.47;;;3.93;;
9413;SDS011;4746;35.664;139.738;2022-11-15T00:03:44;4.80;;;3.90;;
9413;SDS011;4746;35.664;139.738;2022-11-15T00:06:12;4.73;;;4.17;;
9413;SDS011;4746;35.664;139.738;2022-11-15T00:08:40;4.10;;;3.50;;
9413;SDS011;4746;35.664;139.738;2022-11-15T00:11:08;4.07;;;3.43;;
9413;SDS011;4746;35.664;139.738;2022-11-15T00:13:38;4.20;;;3.80;;
9413;SDS011;4746;35.664;139.738;2022-11-15T00:16:06;4.77;;;4.07;;
9413;SDS011;4746;35.664;139.738;2022-11-15T00:18:34;6.43;;;4.23;;
9413;SDS011;4746;35.664;139.738;2022-11-15T00:21:12;5.00;;;3.53;;
9413;SDS011;4746;35.664;139.738;2022-11-15T00:23:40;4.50;;;3.80;;
9413;SDS011;4746;35.664;139.738;2022-11-15T00:26:12;4.10;;;3.70;;
9413;SDS011;4746;35.664;139.738;2022-11-15T00:28:41;3.70;;;3.40;;
9413;SDS011;4746;35.664;139.738;2022-11-15T00:31:11;4.53;;;4.13;;
9413;SDS011;4746;35.664;139.738;2022-11-15T00:33:42;4.13;;;3.83;;
9413;SDS011;4746;35.664;139.738;2022-11-15T00:36:10;4.60;;;4.20;;
9413;SDS011;4746;35.664;139.738;2022-11-15T00:38:38;4.63;;;4.00;;
9413;SDS011;4746;35.664;139.738;2022-11-15T00:41:07;4.37;;;3.97;;
9413;SDS011;4746;35.664;139.738;2022-11-15T00:43:35;3.77;;;3.53;;
9413;SDS011;4746;35.664;139.738;2022-11-15T00:46:06;3.83;;;3.53;;
9413;SDS011;4746;35.664;139.738;2022-11-15T00:48:35;4.13;;;3.73;;
9413;SDS011;4746;35.664;139.738;2022-11-15T00:51:03;3.57;;;3.27;;
9413;SDS011;4746;35.664;139.738;2022-11-15T00:53:30;4.27;;;3.80;;
9413;SDS011;4746;35.664;139.738;2022-11-15T00:55:58;4.40;;;4.00;;
9413;SDS011;4746;35.664;139.738;2022-11-15T00:58:25;3.60;;;3.30;;
9413;SDS011;4746;35.664;139.738;2022-11-15T01:00:53;4.20;;;3.70;;
9413;SDS011;4746;35.664;139.738;2022-11-15T01:03:20;3.33;;;3.03;;
9413;SDS011;4746;35.664;139.738;2022-11-15T01:05:48;3.77;;;3.23;;
9413;SDS011;4746;35.664;139.738;2022-11-15T01:08:15;3.10;;;2.80;;
9413;SDS011;4746;35.664;139.738;2022-11-15T01:10:43;3.00;;;2.80;;
9413;SDS011;4746;35.664;139.738;2022-11-15T01:13:10;2.70;;;2.50;;
9413;SDS011;4746;35.664;139.738;2022-11-15T01:15:41;2.90;;;2.60;;
9413;SDS011;4746;35.664;139.738;2022-11-15T01:18:09;2.83;;;2.60;;
9413;SDS011;4746;35.664;139.738;2022-11-15T01:20:42;3.17;;;2.83;;
9413;SDS011;4746;35.664;139.738;2022-11-15T01:23:10;3.07;;;2.87;;
9413;SDS011;4746;35.664;139.738;2022-11-15T01:25:37;3.33;;;3.03;;
9413;SDS011;4746;35.664;139.738;2022-11-15T01:28:05;4.47;;;4.07;;
9413;SDS011;4746;35.664;139.738;2022-11-15T01:30:33;3.83;;;3.53;;
9413;SDS011;4746;35.664;139.738;2022-11-15T01:33:03;3.60;;;3.10;;
9413;SDS011;4746;35.664;139.738;2022-11-15T01:35:31;3.93;;;3.60;;
9413;SDS011;4746;35.664;139.738;2022-11-15T01:37:58;3.53;;;3.27;;
9413;SDS011;4746;35.664;139.738;2022-11-15T01:40:26;3.43;;;3.23;;
9413;SDS011;4746;35.664;139.738;2022-11-15T01:42:53;3.67;;;3.37;;
9413;SDS011;4746;35.664;139.738;2022-11-15T01:45:21;4.00;;;3.70;;
9413;SDS011;4746;35.664;139.738;2022-11-15T01:47:53;3.50;;;3.20;;
9413;SDS011;4746;35.664;139.738;2022-11-15T01:50:26;3.50;;;3.20;;
9413;SDS011;4746;35.664;139.738;2022-11-15T01:52:58;3.37;;;3.17;;
9413;SDS011;4746;35.664;139.738;2022-11-15T01:55:26;3.80;;;3.50;;
9413;SDS011;4746;35.664;139.738;2022-11-15T01:57:56;3.23;;;3.03;;
9413;SDS011;4746;35.664;139.738;2022-11-15T02:00:29;3.13;;;2.97;;
9413;SDS011;4746;35.664;139.738;2022-11-15T02:02:57;3.83;;;3.57;;
9413;SDS011;4746;35.664;139.738;2022-11-15T02:05:25;4.00;;;3.70;;
9413;SDS011;4746;35.664;139.738;2022-11-15T02:07:53;4.60;;;4.20;;
9413;SDS011;4746;35.664;139.738;2022-11-15T02:10:22;4.47;;;3.87;;
9413;SDS011;4746;35.664;139.738;2022-11-15T02:12:51;3.77;;;3.47;;
9413;SDS011;4746;35.664;139.738;2022-11-15T02:15:21;4.97;;;3.70;;
9413;SDS011;4746;35.664;139.738;2022-11-15T02:17:58;4.57;;;3.23;;
9413;SDS011;4746;35.664;139.738;2022-11-15T02:29:01;5.57;;;4.20;;
9413;SDS011;4746;35.664;139.738;2022-11-15T02:37:58;4.30;;;4.00;;
9413;SDS011;4746;35.664;139.738;2022-11-15T02:43:49;3.80;;;3.50;;
9413;SDS011;4746;35.664;139.738;2022-11-15T02:46:38;4.70;;;4.30;;
9413;SDS011;4746;35.664;139.738;2022-11-15T02:49:47;4.10;;;3.70;;
9413;SDS011;4746;35.664;139.738;2022-11-15T02:52:21;3.53;;;3.23;;
9413;SDS011;4746;35.664;139.738;2022-11-15T02:54:54;4.33;;;3.67;;
9413;SDS011;4746;35.664;139.738;2022-11-15T02:57:44;3.50;;;3.30;;
9413;SDS011;4746;35.664;139.738;2022-11-15T03:00:35;4.27;;;3.53;;
9413;SDS011;4746;35.664;139.738;2022-11-15T03:03:59;4.70;;;4.30;;
9413;SDS011;4746;35.664;139.738;2022-11-15T03:06:42;5.37;;;4.97;;
9413;SDS011;4746;35.664;139.738;2022-11-15T03:12:05;4.20;;;3.30;;
9413;SDS011;4746;35.664;139.738;2022-11-15T03:15:01;3.97;;;3.60;;
9413;SDS011;4746;35.664;139.738;2022-11-15T03:20:30;3.27;;;3.07;;
9413;SDS011;4746;35.664;139.738;2022-11-15T03:23:01;3.63;;;3.33;;
9413;SDS011;4746;35.664;139.738;2022-11-15T03:25:38;3.03;;;2.83;;
9413;SDS011;4746;35.664;139.738;2022-11-15T03:28:13;3.23;;;3.03;;
9413;SDS011;4746;35.664;139.738;2022-11-15T03:31:04;2.60;;;2.50;;
9413;SDS011;4746;35.664;139.738;2022-11-15T03:33:53;3.17;;;2.70;;
9413;SDS011;4746;35.664;139.738;2022-11-15T03:36:25;3.20;;;3.00;;
9413;SDS011;4746;35.664;139.738;2022-11-15T03:38:56;4.07;;;3.40;;
9413;SDS011;4746;35.664;139.738;2022-11-15T03:47:20;3.17;;;2.97;;
9413;SDS011;4746;35.664;139.738;2022-11-15T03:50:17;4.20;;;3.80;;
9413;SDS011;4746;35.664;139.738;2022-11-15T03:52:48;3.80;;;3.50;;
9413;SDS011;4746;35.664;139.738;2022-11-15T03:55:19;3.87;;;3.53;;
9413;SDS011;4746;35.664;139.738;2022-11-15T03:57:50;4.70;;;3.93;;
9413;SDS011;4746;35.664;139.738;2022-11-15T04:00:22;4.27;;;3.87;;
9413;SDS011;4746;35.664;139.738;2022-11-15T04:02:49;4.27;;;3.97;;
9413;SDS011;4746;35.664;139.738;2022-11-15T04:05:17;4.30;;;3.97;;
9413;SDS011;4746;35.664;139.738;2022-11-15T04:07:45;4.20;;;3.83;;
9413;SDS011;4746;35.664;139.738;2022-11-15T04:10:12;4.23;;;3.93;;
9413;SDS011;4746;35.664;139.738;2022-11-15T04:12:41;4.10;;;3.70;;
9413;SDS011;4746;35.664;139.738;2022-11-15T04:15:14;4.37;;;4.07;;
9413;SDS011;4746;35.664;139.738;2022-11-15T04:20:29;4.63;;;4.33;;
9413;SDS011;4746;35.664;139.738;2022-11-15T04:23:17;4.00;;;3.70;;
9413;SDS011;4746;35.664;139.738;2022-11-15T04:26:17;4.53;;;4.13;;
9413;SDS011;4746;35.664;139.738;2022-11-15T04:28:48;5.80;;;4.07;;
9413;SDS011;4746;35.664;139.738;2022-11-15T04:31:33;4.10;;;3.80;;
9413;SDS011;4746;35.664;139.738;2022-11-15T04:34:01;3.23;;;3.03;;
9413;SDS011;4746;35.664;139.738;2022-11-15T04:36:28;4.47;;;4.17;;
9413;SDS011;4746;35.664;139.738;2022-11-15T04:39:14;4.20;;;3.80;;
9413;SDS011;4746;35.664;139.738;2022-11-15T04:41:42;3.70;;;3.40;;
9413;SDS011;4746;35.664;139.738;2022-11-15T04:44:09;3.20;;;3.00;;
9413;SDS011;4746;35.664;139.738;2022-11-15T04:46:36;3.10;;;2.90;;
9413;SDS011;4746;35.664;139.738;2022-11-15T04:49:04;4.00;;;3.70;;
9413;SDS011;4746;35.664;139.738;2022-11-15T04:51:31;3.50;;;3.20;;
9413;SDS011;4746;35.664;139.738;2022-11-15T04:53:59;3.40;;;2.80;;
9413;SDS011;4746;35.664;139.738;2022-11-15T04:56:27;3.40;;;3.10;;
9413;SDS011;4746;35.664;139.738;2022-11-15T04:58:54;4.57;;;4.27;;
9413;SDS011;4746;35.664;139.738;2022-11-15T05:01:22;4.30;;;4.00;;
9413;SDS011;4746;35.664;139.738;2022-11-15T05:03:49;4.43;;;4.03;;
9413;SDS011;4746;35.664;139.738;2022-11-15T05:06:36;3.70;;;3.50;;
9413;SDS011;4746;35.664;139.738;2022-11-15T05:09:04;3.10;;;2.90;;
9413;SDS011;4746;35.664;139.738;2022-11-15T05:11:31;3.60;;;3.30;;
9413;SDS011;4746;35.664;139.738;2022-11-15T05:14:00;3.83;;;3.53;;
9413;SDS011;4746;35.664;139.738;2022-11-15T05:16:27;3.07;;;2.87;;
9413;SDS011;4746;35.664;139.738;2022-11-15T05:18:55;7.43;;;3.23;;
9413;SDS011;4746;35.664;139.738;2022-11-15T05:21:22;2.87;;;2.60;;
9413;SDS011;4746;35.664;139.738;2022-11-15T05:23:50;3.87;;;2.90;;
9413;SDS011;4746;35.664;139.738;2022-11-15T05:26:17;2.63;;;2.43;;
9413;SDS011;4746;35.664;139.738;2022-11-15T05:28:46;2.77;;;2.57;;
9413;SDS011;4746;35.664;139.738;2022-11-15T05:31:21;2.80;;;2.60;;
9413;SDS011;4746;35.664;139.738;2022-11-15T05:33:50;3.43;;;2.57;;
9413;SDS011;4746;35.664;139.738;2022-11-15T05:39:04;3.43;;;2.73;;
9413;SDS011;4746;35.664;139.738;2022-11-15T05:41:34;4.90;;;2.70;;
9413;SDS011;4746;35.664;139.738;2022-11-15T05:44:06;3.60;;;3.30;;
9413;SDS011;4746;35.664;139.738;2022-11-15T05:46:39;3.00;;;2.53;;
9413;SDS011;4746;35.664;139.738;2022-11-15T05:49:10;3.00;;;2.80;;
9413;SDS011;4746;35.664;139.738;2022-11-15T05:51:42;5.00;;;2.67;;
9413;SDS011;4746;35.664;139.738;2022-11-15T05:54:14;2.70;;;2.50;;
9413;SDS011;4746;35.664;139.738;2022-11-15T05:56:43;2.03;;;1.87;;
9413;SDS011;4746;35.664;139.738;2022-11-15T05:59:11;2.00;;;1.83;;
9413;SDS011;4746;35.664;139.738;2022-11-15T06:01:39;2.13;;;2.03;;
9413;SDS011;4746;35.664;139.738;2022-11-15T06:04:07;1.83;;;1.73;;
9413;SDS011;4746;35.664;139.738;2022-11-15T06:06:35;2.20;;;2.00;;
9413;SDS011;4746;35.664;139.738;2022-11-15T06:09:02;2.43;;;2.23;;
9413;SDS011;4746;35.664;139.738;2022-11-15T06:11:30;1.50;;;1.40;;
9413;SDS011;4746;35.664;139.738;2022-11-15T06:13:57;2.13;;;1.93;;
9413;SDS011;4746;35.664;139.738;2022-11-15T06:16:24;2.03;;;1.60;;
9413;SDS011;4746;35.664;139.738;2022-11-15T06:18:52;3.17;;;1.70;;
9413;SDS011;4746;35.664;139.738;2022-11-15T06:21:19;1.97;;;1.73;;
9413;SDS011;4746;35.664;139.738;2022-11-15T06:23:49;2.67;;;1.80;;
9413;SDS011;4746;35.664;139.738;2022-11-15T06:26:17;1.90;;;1.80;;
9413;SDS011;4746;35.664;139.738;2022-11-15T06:28:44;2.33;;;2.13;;
9413;SDS011;4746;35.664;139.738;2022-11-15T06:31:12;2.07;;;1.97;;
9413;SDS011;4746;35.664;139.738;2022-11-15T06:33:40;3.10;;;2.80;;
9413;SDS011;4746;35.664;139.738;2022-11-15T06:36:09;2.47;;;2.23;;
9413;SDS011;4746;35.664;139.738;2022-11-15T06:38:42;2.27;;;2.17;;
9413;SDS011;4746;35.664;139.738;2022-11-15T06:41:11;2.23;;;2.13;;
9413;SDS011;4746;35.664;139.738;2022-11-15T06:43:40;2.40;;;2.20;;
9413;SDS011;4746;35.664;139.738;2022-11-15T06:46:08;2.93;;;2.67;;
9413;SDS011;4746;35.664;139.738;2022-11-15T06:48:36;2.77;;;2.57;;
9413;SDS011;4746;35.664;139.738;2022-11-15T06:51:04;2.70;;;2.50;;
9413;SDS011;4746;35.664;139.738;2022-11-15T06:53:32;3.23;;;3.03;;
9413;SDS011;4746;35.664;139.738;2022-11-15T06:56:01;3.00;;;2.70;;
9413;SDS011;4746;35.664;139.738;2022-11-15T06:58:32;2.57;;;2.37;;
9413;SDS011;4746;35.664;139.738;2022-11-15T07:01:01;3.77;;;2.60;;
9413;SDS011;4746;35.664;139.738;2022-11-15T07:03:35;3.63;;;3.33;;
9413;SDS011;4746;35.664;139.738;2022-11-15T07:06:07;3.13;;;2.93;;
9413;SDS011;4746;35.664;139.738;2022-11-15T07:08:36;3.17;;;2.87;;
9413;SDS011;4746;35.664;139.738;2022-11-15T07:11:05;4.10;;;3.40;;
9413;SDS011;4746;35.664;139.738;2022-11-15T07:13:34;4.27;;;3.87;;
9413;SDS011;4746;35.664;139.738;2022-11-15T07:16:06;4.00;;;3.60;;
9413;SDS011;4746;35.664;139.738;2022-11-15T07:18:36;3.87;;;3.57;;
9413;SDS011;4746;35.664;139.738;2022-11-15T07:21:07;4.23;;;3.50;;
9413;SDS011;4746;35.664;139.738;2022-11-15T07:23:38;4.00;;;3.70;;
9413;SDS011;4746;35.664;139.738;2022-11-15T07:26:06;4.17;;;3.87;;
9413;SDS011;4746;35.664;139.738;2022-11-15T07:28:34;4.30;;;3.90;;
9413;SDS011;4746;35.664;139.738;2022-11-15T07:31:03;3.63;;;3.43;;
9413;SDS011;4746;35.664;139.738;2022-11-15T07:33:33;3.53;;;3.33;;
9413;SDS011;4746;35.664;139.738;2022-11-15T07:36:01;4.27;;;3.97;;
9413;SDS011;4746;35.664;139.738;2022-11-15T07:38:31;4.00;;;3.80;;
9413;SDS011;4746;35.664;139.738;2022-11-15T07:41:01;4.17;;;3.77;;
9413;SDS011;4746;35.664;139.738;2022-11-15T07:43:30;3.93;;;3.73;;
9413;SDS011;4746;35.664;139.738;2022-11-15T07:46:03;3.70;;;3.43;;
9413;SDS011;4746;35.664;139.738;2022-11-15T07:48:34;3.20;;;3.00;;
9413;SDS011;4746;35.664;139.738;2022-11-15T07:51:05;3.67;;;3.30;;
9413;SDS011;4746;35.664;139.738;2022-11-15T07:53:36;3.60;;;3.40;;
9413;SDS011;4746;35.664;139.738;2022-11-15T07:56:05;3.70;;;3.40;;
9413;SDS011;4746;35.664;139.738;2022-11-15T07:58:34;3.90;;;3.67;;
9413;SDS011;4746;35.664;139.738;2022-11-15T08:01:05;3.83;;;3.50;;
9413;SDS011;4746;35.664;139.738;2022-11-15T08:03:36;3.30;;;3.10;;
9413;SDS011;4746;35.664;139.738;2022-11-15T08:06:04;3.50;;;3.20;;
9413;SDS011;4746;35.664;139.738;2022-11-15T08:08:32;4.20;;;3.90;;
9413;SDS011;4746;35.664;139.738;2022-11-15T08:11:01;4.13;;;3.77;;
9413;SDS011;4746;35.664;139.738;2022-11-15T08:13:29;3.87;;;3.57;;
9413;SDS011;4746;35.664;139.738;2022-11-15T08:16:00;4.30;;;4.10;;
9413;SDS011;4746;35.664;139.738;2022-11-15T08:18:30;4.80;;;4.40;;
9413;SDS011;4746;35.664;139.738;2022-11-15T08:20:59;4.60;;;4.20;;
9413;SDS011;4746;35.664;139.738;2022-11-15T08:23:28;4.70;;;4.30;;
9413;SDS011;4746;35.664;139.738;2022-11-15T08:25:59;4.23;;;4.00;;
9413;SDS011;4746;35.664;139.738;2022-11-15T08:28:29;4.63;;;4.33;;
9413;SDS011;4746;35.664;139.738;2022-11-15T08:30:58;5.43;;;5.03;;
9413;SDS011;4746;35.664;139.738;2022-11-15T08:33:27;4.83;;;4.63;;
9413;SDS011;4746;35.664;139.738;2022-11-15T08:35:56;6.37;;;5.87;;
9413;SDS011;4746;35.664;139.738;2022-11-15T08:38:25;7.90;;;7.07;;
9413;SDS011;4746;35.664;139.738;2022-11-15T08:40:58;8.50;;;7.90;;
9413;SDS011;4746;35.664;139.738;2022-11-15T08:43:31;8.50;;;7.80;;
9413;SDS011;4746;35.664;139.738;2022-11-15T08:45:59;7.90;;;7.40;;
9413;SDS011;4746;35.664;139.738;2022-11-15T08:48:26;8.07;;;7.57;;
9413;SDS011;4746;35.664;139.738;2022-11-15T08:50:55;9.87;;;9.07;;
9413;SDS011;4746;35.664;139.738;2022-11-15T08:53:23;9.50;;;8.73;;
9413;SDS011;4746;35.664;139.738;2022-11-15T08:55:50;9.80;;;9.10;;
9413;SDS011;4746;35.664;139.738;2022-11-15T08:58:18;9.57;;;8.87;;
9413;SDS011;4746;35.664;139.738;2022-11-15T09:00:46;9.23;;;8.53;;
9413;SDS011;4746;35.664;139.738;2022-11-15T09:03:13;9.30;;;8.53;;
9413;SDS011;4746;35.664;139.738;2022-11-15T09:05:41;9.10;;;8.40;;
9413;SDS011;4746;35.664;139.738;2022-11-15T09:08:08;8.07;;;7.57;;
9413;SDS011;4746;35.664;139.738;2022-11-15T09:10:38;7.73;;;7.23;;
9413;SDS011;4746;35.664;139.738;2022-11-15T09:13:05;7.83;;;7.10;;
9413;SDS011;4746;35.664;139.738;2022-11-15T09:15:33;8.20;;;7.70;;
9413;SDS011;4746;35.664;139.738;2022-11-15T09:18:00;7.90;;;7.30;;
9413;SDS011;4746;35.664;139.738;2022-11-15T09:20:28;7.93;;;7.33;;
9413;SDS011;4746;35.664;139.738;2022-11-15T09:22:58;8.07;;;7.57;;
9413;SDS011;4746;35.664;139.738;2022-11-15T09:25:30;7.73;;;7.13;;
9413;SDS011;4746;35.664;139.738;2022-11-15T09:27:58;8.13;;;7.33;;
9413;SDS011;4746;35.664;139.738;2022-11-15T09:30:25;6.87;;;6.47;;
9413;SDS011;4746;35.664;139.738;2022-11-15T09:32:53;7.63;;;7.13;;
9413;SDS011;4746;35.664;139.738;2022-11-15T09:35:20;7.83;;;7.23;;
9413;SDS011;4746;35.664;139.738;2022-11-15T09:37:48;7.73;;;7.23;;
9413;SDS011;4746;35.664;139.738;2022-11-15T09:40:16;7.97;;;7.40;;
9413;SDS011;4746;35.664;139.738;2022-11-15T09:45:34;8.33;;;7.73;;
9413;SDS011;4746;35.664;139.738;2022-11-15T09:51:27;8.40;;;7.80;;
9413;SDS011;4746;35.664;139.738;2022-11-15T09:54:04;9.17;;;8.50;;
9413;SDS011;4746;35.664;139.738;2022-11-15T09:56:56;9.37;;;8.57;;
9413;SDS011;4746;35.664;139.738;2022-11-15T10:02:47;8.73;;;8.13;;
9413;SDS011;4746;35.664;139.738;2022-11-15T10:05:27;8.77;;;8.17;;
9413;SDS011;4746;35.664;139.738;2022-11-15T10:08:02;9.30;;;8.50;;
9413;SDS011;4746;35.664;139.738;2022-11-15T10:10:55;9.17;;;8.57;;
9413;SDS011;4746;35.664;139.738;2022-11-15T10:13:37;8.53;;;7.93;;
9413;SDS011;4746;35.664;139.738;2022-11-15T10:19:16;7.80;;;7.23;;
9413;SDS011;4746;35.664;139.738;2022-11-15T10:24:50;6.93;;;6.47;;
9413;SDS011;4746;35.664;139.738;2022-11-15T10:27:32;7.83;;;7.33;;
9413;SDS011;4746;35.664;139.738;2022-11-15T10:30:00;7.77;;;7.17;;
9413;SDS011;4746;35.664;139.738;2022-11-15T10:32:36;8.10;;;7.50;;
9413;SDS011;4746;35.664;139.738;2022-11-15T10:35:18;8.37;;;7.77;;
9413;SDS011;4746;35.664;139.738;2022-11-15T10:38:10;8.00;;;7.50;;
9413;SDS011;4746;35.664;139.738;2022-11-15T10:40:39;7.47;;;6.87;;
9413;SDS011;4746;35.664;139.738;2022-11-15T10:45:37;6.93;;;6.43;;
9413;SDS011;4746;35.664;139.738;2022-11-15T10:50:47;7.10;;;6.60;;
9413;SDS011;4746;35.664;139.738;2022-11-15T10:53:28;7.27;;;6.70;;
9413;SDS011;4746;35.664;139.738;2022-11-15T10:56:08;6.47;;;5.97;;
9413;SDS011;4746;35.664;139.738;2022-11-15T10:58:41;5.27;;;4.97;;
9413;SDS011;4746;35.664;139.738;2022-11-15T11:01:22;4.43;;;4.03;;
9413;SDS011;4746;35.664;139.738;2022-11-15T11:03:59;4.60;;;4.30;;
9413;SDS011;4746;35.664;139.738;2022-11-15T11:06:31;4.20;;;3.90;;
9413;SDS011;4746;35.664;139.738;2022-11-15T11:09:23;4.07;;;3.70;;
9413;SDS011;4746;35.664;139.738;2022-11-15T11:11:58;3.77;;;3.53;;
9413;SDS011;4746;35.664;139.738;2022-11-15T11:14:29;5.00;;;4.70;;
9413;SDS011;4746;35.664;139.738;2022-11-15T11:20:08;6.77;;;6.17;;
9413;SDS011;4746;35.664;139.738;2022-11-15T11:22:58;7.10;;;6.60;;
9413;SDS011;4746;35.664;139.738;2022-11-15T11:26:11;6.97;;;6.43;;
9413;SDS011;4746;35.664;139.738;2022-11-15T11:29:07;7.20;;;6.50;;
9413;SDS011;4746;35.664;139.738;2022-11-15T11:35:30;7.03;;;6.43;;
9413;SDS011;4746;35.664;139.738;2022-11-15T11:38:34;6.40;;;5.90;;
9413;SDS011;4746;35.664;139.738;2022-11-15T11:47:21;8.07;;;7.40;;
9413;SDS011;4746;35.664;139.738;2022-11-15T11:50:12;9.53;;;8.70;;
9413;SDS011;4746;35.664;139.738;2022-11-15T11:56:02;9.43;;;8.63;;
9413;SDS011;4746;35.664;139.738;2022-11-15T11:58:46;9.43;;;8.73;;
9413;SDS011;4746;35.664;139.738;2022-11-15T12:04:11;11.03;;;10.03;;
9413;SDS011;4746;35.664;139.738;2022-11-15T12:09:43;13.63;;;12.63;;
9413;SDS011;4746;35.664;139.738;2022-11-15T12:15:42;12.53;;;11.63;;
9413;SDS011;4746;35.664;139.738;2022-11-15T12:18:18;13.60;;;12.40;;
9413;SDS011;4746;35.664;139.738;2022-11-15T12:20:55;14.17;;;13.07;;
9413;SDS011;4746;35.664;139.738;2022-11-15T12:23:49;16.83;;;15.43;;
9413;SDS011;4746;35.664;139.738;2022-11-15T12:26:29;16.53;;;15.33;;
9413;SDS011;4746;35.664;139.738;2022-11-15T12:29:36;15.90;;;14.60;;
9413;SDS011;4746;35.664;139.738;2022-11-15T12:32:17;16.03;;;14.73;;
9413;SDS011;4746;35.664;139.738;2022-11-15T12:35:04;16.97;;;15.47;;
9413;SDS011;4746;35.664;139.738;2022-11-15T12:38:04;18.07;;;16.47;;
9413;SDS011;4746;35.664;139.738;2022-11-15T12:41:11;18.40;;;17.03;;
9413;SDS011;4746;35.664;139.738;2022-11-15T12:43:42;17.57;;;16.10;;
9413;SDS011;4746;35.664;139.738;2022-11-15T12:46:22;17.80;;;16.27;;
9413;SDS011;4746;35.664;139.738;2022-11-15T12:49:03;18.20;;;16.60;;
9413;SDS011;4746;35.664;139.738;2022-11-15T13:02:30;16.87;;;15.47;;
9413;SDS011;4746;35.664;139.738;2022-11-15T13:07:54;15.57;;;14.10;;
9413;SDS011;4746;35.664;139.738;2022-11-15T13:10:31;14.90;;;13.70;;
9413;SDS011;4746;35.664;139.738;2022-11-15T13:13:09;16.47;;;14.97;;
9413;SDS011;4746;35.664;139.738;2022-11-15T13:15:52;15.53;;;14.17;;
9413;SDS011;4746;35.664;139.738;2022-11-15T13:18:35;16.90;;;15.50;;
9413;SDS011;4746;35.664;139.738;2022-11-15T13:21:18;15.73;;;14.43;;
9413;SDS011;4746;35.664;139.738;2022-11-15T13:24:12;15.17;;;13.87;;
9413;SDS011;4746;35.664;139.738;2022-11-15T13:26:42;15.57;;;14.07;;
9413;SDS011;4746;35.664;139.738;2022-11-15T13:29:14;15.57;;;14.23;;
9413;SDS011;4746;35.664;139.738;2022-11-15T13:31:45;13.53;;;12.53;;
9413;SDS011;4746;35.664;139.738;2022-11-15T13:39:48;12.37;;;11.37;;
9413;SDS011;4746;35.664;139.738;2022-11-15T13:42:19;11.93;;;10.97;;
9413;SDS011;4746;35.664;139.738;2022-11-15T13:44:58;12.53;;;11.33;;
9413;SDS011;4746;35.664;139.738;2022-11-15T13:47:29;11.57;;;10.60;;
9413;SDS011;4746;35.664;139.738;2022-11-15T13:49:57;11.47;;;10.47;;
9413;SDS011;4746;35.664;139.738;2022-11-15T13:52:31;12.00;;;10.80;;
9413;SDS011;4746;35.664;139.738;2022-11-15T13:55:08;11.97;;;10.87;;
9413;SDS011;4746;35.664;139.738;2022-11-15T13:57:45;11.27;;;10.37;;
9413;SDS011;4746;35.664;139.738;2022-11-15T14:00:41;11.43;;;10.50;;
9413;SDS011;4746;35.664;139.738;2022-11-15T14:08:39;11.33;;;10.43;;
9413;SDS011;4746;35.664;139.738;2022-11-15T14:11:29;11.40;;;10.50;;
9413;SDS011;4746;35.664;139.738;2022-11-15T14:16:39;11.70;;;10.70;;
9413;SDS011;4746;35.664;139.738;2022-11-15T14:24:36;10.30;;;9.43;;
9413;SDS011;4746;35.664;139.738;2022-11-15T14:29:56;10.83;;;9.93;;
9413;SDS011;4746;35.664;139.738;2022-11-15T14:32:24;9.87;;;9.07;;
9413;SDS011;4746;35.664;139.738;2022-11-15T14:35:13;8.77;;;7.97;;
9413;SDS011;4746;35.664;139.738;2022-11-15T14:37:45;9.57;;;8.77;;
9413;SDS011;4746;35.664;139.738;2022-11-15T14:40:14;9.97;;;9.17;;
9413;SDS011;4746;35.664;139.738;2022-11-15T14:42:45;10.77;;;9.97;;
9413;SDS011;4746;35.664;139.738;2022-11-15T14:45:21;11.47;;;10.30;;
9413;SDS011;4746;35.664;139.738;2022-11-15T14:47:53;12.30;;;11.20;;
9413;SDS011;4746;35.664;139.738;2022-11-15T14:50:21;12.93;;;11.90;;
9413;SDS011;4746;35.664;139.738;2022-11-15T14:52:48;13.17;;;12.03;;
9413;SDS011;4746;35.664;139.738;2022-11-15T14:57:53;14.33;;;13.03;;
9413;SDS011;4746;35.664;139.738;2022-11-15T15:00:21;14.70;;;13.50;;
9413;SDS011;4746;35.664;139.738;2022-11-15T15:03:10;13.40;;;12.20;;
9413;SDS011;4746;35.664;139.738;2022-11-15T15:05:41;14.40;;;13.10;;
9413;SDS011;4746;35.664;139.738;2022-11-15T15:08:10;14.33;;;13.13;;
9413;SDS011;4746;35.664;139.738;2022-11-15T15:10:39;14.60;;;13.20;;
9413;SDS011;4746;35.664;139.738;2022-11-15T15:13:20;15.77;;;14.40;;
9413;SDS011;4746;35.664;139.738;2022-11-15T15:15:50;15.87;;;14.47;;
9413;SDS011;4746;35.664;139.738;2022-11-15T15:18:18;14.80;;;13.50;;
9413;SDS011;4746;35.664;139.738;2022-11-15T15:20:47;13.97;;;12.87;;
9413;SDS011;4746;35.664;139.738;2022-11-15T15:23:32;15.27;;;13.87;;
9413;SDS011;4746;35.664;139.738;2022-11-15T15:26:00;15.10;;;13.93;;
9413;SDS011;4746;35.664;139.738;2022-11-15T15:28:28;14.93;;;13.60;;
9413;SDS011;4746;35.664;139.738;2022-11-15T15:30:56;15.37;;;14.07;;
9413;SDS011;4746;35.664;139.738;2022-11-15T15:33:23;15.47;;;14.17;;
9413;SDS011;4746;35.664;139.738;2022-11-15T15:35:51;16.40;;;14.90;;
9413;SDS011;4746;35.664;139.738;2022-11-15T15:38:19;15.17;;;13.97;;
9413;SDS011;4746;35.664;139.738;2022-11-15T15:40:47;15.50;;;14.20;;
9413;SDS011;4746;35.664;139.738;2022-11-15T15:43:14;15.90;;;14.30;;
9413;SDS011;4746;35.664;139.738;2022-11-15T15:45:42;18.23;;;16.73;;
9413;SDS011;4746;35.664;139.738;2022-11-15T15:48:11;15.20;;;14.00;;
9413;SDS011;4746;35.664;139.738;2022-11-15T15:50:42;15.53;;;14.00;;
9413;SDS011;4746;35.664;139.738;2022-11-15T15:53:11;15.77;;;13.80;;
9413;SDS011;4746;35.664;139.738;2022-11-15T15:55:40;15.97;;;14.47;;
9413;SDS011;4746;35.664;139.738;2022-11-15T15:58:11;13.47;;;12.37;;
9413;SDS011;4746;35.664;139.738;2022-11-15T16:00:39;12.40;;;11.10;;
9413;SDS011;4746;35.664;139.738;2022-11-15T16:03:07;11.43;;;10.43;;
9413;SDS011;4746;35.664;139.738;2022-11-15T16:05:34;9.67;;;8.87;;
9413;SDS011;4746;35.664;139.738;2022-11-15T16:08:02;11.00;;;10.10;;
9413;SDS011;4746;35.664;139.738;2022-11-15T16:10:33;11.40;;;10.40;;
9413;SDS011;4746;35.664;139.738;2022-11-15T16:13:02;11.03;;;10.03;;
9413;SDS011;4746;35.664;139.738;2022-11-15T16:15:34;11.33;;;10.40;;
9413;SDS011;4746;35.664;139.738;2022-11-15T16:18:03;11.13;;;10.23;;
9413;SDS011;4746;35.664;139.738;2022-11-15T16:20:36;12.60;;;11.60;;
9413;SDS011;4746;35.664;139.738;2022-11-15T16:23:08;11.10;;;10.10;;
9413;SDS011;4746;35.664;139.738;2022-11-15T16:25:44;9.03;;;8.33;;
9413;SDS011;4746;35.664;139.738;2022-11-15T16:28:19;12.33;;;11.27;;
9413;SDS011;4746;35.664;139.738;2022-11-15T16:31:00;12.00;;;10.90;;
9413;SDS011;4746;35.664;139.738;2022-11-15T16:33:36;13.10;;;12.03;;
9413;SDS011;4746;35.664;139.738;2022-11-15T16:36:04;11.37;;;10.50;;
9413;SDS011;4746;35.664;139.738;2022-11-15T16:38:49;12.80;;;11.70;;
9413;SDS011;4746;35.664;139.738;2022-11-15T16:41:17;12.80;;;11.70;;
9413;SDS011;4746;35.664;139.738;2022-11-15T16:43:45;10.43;;;9.63;;
9413;SDS011;4746;35.664;139.738;2022-11-15T16:46:20;13.07;;;12.07;;
9413;SDS011;4746;35.664;139.738;2022-11-15T16:48:51;13.10;;;12.10;;
9413;SDS011;4746;35.664;139.738;2022-11-15T16:51:19;13.33;;;12.13;;
9413;SDS011;4746;35.664;139.738;2022-11-15T16:53:48;14.27;;;13.00;;
9413;SDS011;4746;35.664;139.738;2022-11-15T16:58:55;11.33;;;10.30;;
9413;SDS011;4746;35.664;139.738;2022-11-15T17:01:24;14.40;;;13.17;;
9413;SDS011;4746;35.664;139.738;2022-11-15T17:04:01;14.10;;;12.83;;
9413;SDS011;4746;35.664;139.738;2022-11-15T17:06:38;14.30;;;12.93;;
9413;SDS011;4746;35.664;139.738;2022-11-15T17:09:13;14.13;;;12.93;;
9413;SDS011;4746;35.664;139.738;2022-11-15T17:11:50;14.83;;;13.53;;
9413;SDS011;4746;35.664;139.738;2022-11-15T17:14:18;13.80;;;12.70;;
9413;SDS011;4746;35.664;139.738;2022-11-15T17:16:46;14.07;;;12.87;;